Time;durP1;ratioP1;P1;durP2;ratioP2;P2;SDS_P1;SDS_P2;PMS_P1;PMS_P2;Temp;Humidity;BMP_temperature;BMP_pressure;BME280_temperature;BME280_humidity;BME280_pressure;Samples;Min_cycle;Max_cycle;Signal;HPM_P1;HPM_P2
2023/10/16 00:01:45;;;;;;;3.80;1.90;;;;;;;8.86;94.38;99104.30;105618;1260;60402;-71
2023/10/16 00:04:13;;;;;;;7.60;2.50;;;;;;;8.88;94.79;99102.67;105600;1260;60506;-74
2023/10/16 00:06:41;;;;;;;4.50;2.10;;;;;;;8.90;94.60;99106.46;105869;1254;73881;-73
2023/10/16 00:09:15;;;;;;;5.70;2.30;;;;;;;8.93;95.15;99108.42;105637;1254;68959;-71
2023/10/16 00:11:43;;;;;;;4.20;2.40;;;;;;;8.95;95.75;99108.73;105806;1254;71371;-72
2023/10/16 00:14:23;;;;;;;4.40;2.00;;;;;;;8.97;95.24;99104.16;105838;1253;60543;-73
2023/10/16 00:16:51;;;;;;;3.80;2.40;;;;;;;8.96;95.07;99105.09;105703;1260;60411;-73
2023/10/16 00:19:19;;;;;;;3.60;2.10;;;;;;;8.91;95.10;99104.77;105576;1260;72826;-71
2023/10/16 00:21:46;;;;;;;5.00;2.60;;;;;;;8.83;95.05;99109.45;105694;1260;70172;-73
2023/10/16 00:24:14;;;;;;;4.80;2.40;;;;;;;8.76;94.52;99109.18;105762;1257;71034;-74
2023/10/16 00:26:50;;;;;;;3.10;2.10;;;;;;;8.62;94.38;99108.54;105776;1255;61757;-75
2023/10/16 00:29:24;;;;;;;4.60;2.70;;;;;;;8.53;94.98;99108.65;105621;1254;60418;-69
2023/10/16 00:31:52;;;;;;;7.60;2.30;;;;;;;8.52;95.57;99108.80;105726;1253;73849;-72
2023/10/16 00:34:20;;;;;;;3.50;1.80;;;;;;;8.50;95.58;99110.63;105710;1254;69963;-73
2023/10/16 00:36:54;;;;;;;3.50;2.00;;;;;;;8.48;95.53;99105.40;105704;1253;72699;-70
2023/10/16 00:39:28;;;;;;;6.60;3.30;;;;;;;8.47;95.89;99102.29;105687;1254;60538;-71
2023/10/16 00:41:57;;;;;;;4.30;2.00;;;;;;;8.46;96.00;99101.47;105787;1253;60387;-71
2023/10/16 00:44:33;;;;;;;4.90;2.30;;;;;;;8.46;98.37;99101.30;105800;1254;73797;-70
2023/10/16 00:47:03;;;;;;;6.60;2.00;;;;;;;8.43;99.63;99097.52;105673;1254;71061;-73
2023/10/16 00:49:34;;;;;;;4.00;1.90;;;;;;;8.41;100.00;99091.31;105750;1261;73700;-73
2023/10/16 00:52:05;;;;;;;5.00;2.00;;;;;;;8.37;100.00;99093.12;105540;1256;60485;-74
2023/10/16 00:54:38;;;;;;;3.80;2.20;;;;;;;8.31;100.00;99083.58;105590;1253;60403;-74
2023/10/16 00:57:08;;;;;;;6.40;2.80;;;;;;;8.32;100.00;99084.87;105705;1254;74713;-73
2023/10/16 00:59:35;;;;;;;5.80;2.90;;;;;;;8.28;100.00;99081.73;105737;1254;70307;-72
2023/10/16 01:02:14;;;;;;;5.00;1.90;;;;;;;8.15;100.00;99081.80;105576;1259;72674;-75
2023/10/16 01:04:42;;;;;;;5.50;2.60;;;;;;;8.10;100.00;99083.80;105541;1257;60951;-74
2023/10/16 01:07:14;;;;;;;6.40;4.00;;;;;;;8.10;100.00;99077.40;105752;1259;60356;-73
2023/10/16 01:09:46;;;;;;;6.50;4.20;;;;;;;8.07;100.00;99077.61;105764;1254;73988;-75
2023/10/16 01:12:16;;;;;;;7.20;5.50;;;;;;;8.08;100.00;99078.44;105607;1254;70176;-73
2023/10/16 01:14:44;;;;;;;7.00;4.90;;;;;;;8.09;100.00;99076.95;105536;1257;72737;-74
2023/10/16 01:17:12;;;;;;;9.60;5.90;;;;;;;8.13;100.00;99072.98;105711;1260;60445;-75
2023/10/16 01:19:47;;;;;;;6.40;3.90;;;;;;;8.17;100.00;99072.20;105692;1259;60352;-75
2023/10/16 01:22:15;;;;;;;7.20;4.10;;;;;;;8.22;100.00;99068.65;105765;1253;72623;-76
2023/10/16 01:24:46;;;;;;;9.90;4.10;;;;;;;8.22;100.00;99074.88;105674;1260;69068;-74
2023/10/16 01:27:26;;;;;;;4.80;3.60;;;;;;;8.24;100.00;99075.33;105610;1257;73087;-74
2023/10/16 01:29:59;;;;;;;6.20;3.40;;;;;;;8.19;100.00;99074.94;105657;1253;60733;-75
2023/10/16 01:32:29;;;;;;;6.30;3.50;;;;;;;8.17;100.00;99076.15;105564;1256;60444;-74
2023/10/16 01:34:59;;;;;;;6.80;3.00;;;;;;;8.14;100.00;99072.59;105788;1254;71747;-74
2023/10/16 01:37:27;;;;;;;5.80;3.00;;;;;;;8.18;100.00;99075.11;105879;1259;71560;-76
2023/10/16 01:40:14;;;;;;;4.70;2.80;;;;;;;8.21;100.00;99074.95;105603;1256;71733;-75
2023/10/16 01:42:42;;;;;;;5.10;2.70;;;;;;;8.20;100.00;99080.00;105814;1254;60457;-72
2023/10/16 01:45:12;;;;;;;5.90;2.70;;;;;;;8.21;100.00;99072.17;105786;1259;60432;-75
2023/10/16 01:47:39;;;;;;;6.70;2.70;;;;;;;8.22;99.96;99064.95;107219;1253;72862;-76
2023/10/16 01:50:13;;;;;;;4.30;2.70;;;;;;;8.22;100.00;99055.98;107260;1253;69210;-75
2023/10/16 01:52:40;;;;;;;4.50;2.10;;;;;;;8.26;100.00;99045.45;106776;1255;71368;-75
2023/10/16 01:55:10;;;;;;;5.50;2.30;;;;;;;8.31;99.95;99037.86;105842;1259;60697;-76
2023/10/16 01:57:38;;;;;;;4.10;2.30;;;;;;;8.34;99.73;99034.30;105901;1253;60570;-74
2023/10/16 02:00:16;;;;;;;3.60;2.00;;;;;;;8.35;99.50;99030.54;105842;1254;74335;-73
2023/10/16 02:02:45;;;;;;;5.10;3.40;;;;;;;8.35;99.16;99028.61;105934;1259;68727;-75
2023/10/16 02:05:14;;;;;;;3.30;2.10;;;;;;;8.36;98.71;99019.94;105892;1259;72481;-77
2023/10/16 02:07:43;;;;;;;4.90;2.20;;;;;;;8.37;98.63;99015.48;105713;1253;60633;-76
2023/10/16 02:10:14;;;;;;;4.40;1.60;;;;;;;8.42;99.01;99016.90;105844;1253;60962;-76
2023/10/16 02:12:42;;;;;;;3.30;1.40;;;;;;;8.48;99.62;99022.73;105728;1254;76523;-77
2023/10/16 02:15:09;;;;;;;2.40;1.70;;;;;;;8.53;99.88;99022.08;105652;1253;69988;-77
2023/10/16 02:17:38;;;;;;;22.90;14.00;;;;;;;8.53;99.56;99018.61;105613;1260;72530;-77
2023/10/16 02:20:13;;;;;;;6.40;2.80;;;;;;;8.49;98.03;99019.30;105751;1259;60412;-77
2023/10/16 02:22:41;;;;;;;2.30;1.40;;;;;;;8.43;97.51;99022.43;105705;1253;60339;-77
2023/10/16 02:25:08;;;;;;;5.90;1.80;;;;;;;8.38;96.26;99019.95;105435;1254;73997;-73
2023/10/16 02:27:36;;;;;;;2.10;1.50;;;;;;;8.24;94.98;99019.20;105452;1254;70361;-75
2023/10/16 02:32:53;;;;;;;3.90;2.00;;;;;;;7.90;93.40;99020.29;105727;1259;60434;-72
2023/10/16 02:35:21;;;;;;;2.00;1.40;;;;;;;7.77;93.75;99022.11;105632;1259;60429;-73
2023/10/16 02:37:53;;;;;;;2.60;1.70;;;;;;;7.66;93.57;99026.30;105603;1254;72680;-73
2023/10/16 02:40:25;;;;;;;6.40;3.90;;;;;;;7.57;93.43;99025.61;105451;1259;68199;-73
2023/10/16 02:42:56;;;;;;;7.70;6.00;;;;;;;7.49;93.85;99032.73;105732;1257;71834;-75
2023/10/16 02:45:24;;;;;;;4.60;4.00;;;;;;;7.40;93.92;99031.73;105584;1255;60948;-72
2023/10/16 02:47:53;;;;;;;3.90;2.40;;;;;;;7.33;94.32;99029.48;105630;1253;60521;-74
2023/10/16 02:50:20;;;;;;;5.00;3.10;;;;;;;7.31;94.74;99025.52;105564;1259;73871;-74
2023/10/16 02:52:48;;;;;;;4.40;2.90;;;;;;;7.27;94.97;99021.67;105648;1259;68932;-75
2023/10/16 02:55:16;;;;;;;4.00;2.20;;;;;;;7.25;94.80;99019.17;105659;1253;71659;-76
2023/10/16 02:57:43;;;;;;;4.30;2.00;;;;;;;7.23;94.78;99015.90;105837;1255;60518;-79
2023/10/16 03:00:25;;;;;;;4.20;2.10;;;;;;;7.19;95.00;99016.89;105677;1257;60508;-73
2023/10/16 03:02:53;;;;;;;3.40;1.70;;;;;;;7.19;95.84;99018.33;105803;1253;72648;-75
2023/10/16 03:05:24;;;;;;;5.90;1.80;;;;;;;7.20;96.55;99014.34;105838;1259;69547;-74
2023/10/16 03:07:52;;;;;;;3.50;1.90;;;;;;;7.15;96.96;99015.37;105836;1254;72806;-74
2023/10/16 03:10:22;;;;;;;3.80;1.70;;;;;;;7.13;96.71;99021.77;105761;1259;60597;-75
2023/10/16 03:12:49;;;;;;;3.90;1.70;;;;;;;7.13;96.77;99020.19;105699;1259;60415;-75
2023/10/16 03:15:20;;;;;;;3.70;1.80;;;;;;;7.10;96.54;99019.06;105714;1253;72529;-76
2023/10/16 03:17:51;;;;;;;5.70;2.40;;;;;;;7.04;96.50;99021.33;105648;1259;69289;-76
2023/10/16 03:20:20;;;;;;;4.90;2.20;;;;;;;7.02;96.81;99025.35;105713;1256;72672;-75
2023/10/16 03:22:51;;;;;;;3.30;2.10;;;;;;;7.02;97.27;99025.75;105768;1259;60404;-75
2023/10/16 03:25:28;;;;;;;3.40;2.20;;;;;;;6.98;97.99;99026.00;105753;1253;60528;-74
2023/10/16 03:27:57;;;;;;;5.20;2.20;;;;;;;6.99;98.14;99024.26;105526;1254;74090;-72
2023/10/16 03:30:28;;;;;;;2.30;1.90;;;;;;;7.00;98.09;99026.50;105666;1253;69522;-72
2023/10/16 03:33:00;;;;;;;3.70;2.10;;;;;;;6.90;98.03;99024.20;105686;1256;72761;-74
2023/10/16 03:35:32;;;;;;;3.80;1.70;;;;;;;6.86;98.25;99027.94;105724;1257;61770;-74
2023/10/16 03:38:01;;;;;;;5.60;1.90;;;;;;;6.85;98.14;99025.38;105654;1253;60473;-73
2023/10/16 03:40:28;;;;;;;4.30;1.80;;;;;;;6.81;98.19;99027.95;105674;1253;73962;-75
2023/10/16 03:42:56;;;;;;;3.20;1.60;;;;;;;6.81;98.19;99029.56;105668;1253;70416;-74
2023/10/16 03:45:24;;;;;;;3.00;1.60;;;;;;;6.79;98.25;99026.36;105640;1260;71285;-74
2023/10/16 03:47:58;;;;;;;4.50;1.90;;;;;;;6.78;98.48;99032.85;105835;1258;61699;-73
2023/10/16 03:50:34;;;;;;;;;;;;;;;6.78;98.33;99033.38;105771;1255;60533;-75
2023/10/16 03:53:02;;;;;;;4.10;2.00;;;;;;;6.76;98.24;99031.61;105741;1255;72375;-75
2023/10/16 03:55:32;;;;;;;6.90;1.90;;;;;;;6.72;98.01;99027.46;105769;1258;70473;-74
2023/10/16 03:58:00;;;;;;;4.60;1.90;;;;;;;6.69;98.17;99025.80;105636;1257;72339;-76
2023/10/16 04:00:43;;;;;;;4.50;1.80;;;;;;;6.71;98.42;99013.70;105623;1256;60477;-74
2023/10/16 04:03:11;;;;;;;5.50;2.10;;;;;;;6.70;98.55;99008.48;105718;1261;60416;-75
2023/10/16 04:05:47;;;;;;;3.60;2.10;;;;;;;6.69;98.28;99005.05;105709;1255;72645;-76
2023/10/16 04:08:18;;;;;;;2.50;1.50;;;;;;;6.65;98.28;99007.74;105648;1257;70188;-73
2023/10/16 04:10:46;;;;;;;4.00;2.00;;;;;;;6.62;98.73;99010.14;105807;1257;75743;-74
2023/10/16 04:13:14;;;;;;;2.70;2.00;;;;;;;6.65;99.02;99012.07;105693;1257;60524;-74
2023/10/16 04:15:59;;;;;;;5.80;2.00;;;;;;;6.64;99.32;99010.64;105718;1256;60342;-74
2023/10/16 04:21:37;;;;;;;4.60;1.80;;;;;;;6.68;99.21;99011.81;105651;1257;69961;-75
2023/10/16 04:34:34;;;;;;;4.80;2.90;;;;;;;6.65;100.00;99027.81;105563;1254;68763;-77
2023/10/16 04:50:49;;;;;;;4.30;2.50;;;;;;;6.86;100.00;99016.45;105656;1256;72618;-74
2023/10/16 04:53:13;;;;;;;6.50;2.70;;;;;;;7.02;100.00;99013.05;105750;1259;60441;-76
2023/10/16 05:00:57;;;;;;;9.10;3.00;;;;;;;7.32;100.00;98996.69;105708;1259;68715;-77
2023/10/16 05:19:44;;;;;;;5.10;3.80;;;;;;;7.41;99.82;99013.99;105552;1254;60460;-77
2023/10/16 06:14:09;;;;;;;4.70;2.90;;;;;;;7.46;100.00;99011.11;105671;1256;60429;-77
2023/10/16 06:15:00;;;;;;;10.70;4.00;;;;;;;7.79;97.22;99042.02;105939;1259;60862;-78
2023/10/16 06:17:28;;;;;;;7.70;4.40;;;;;;;7.82;97.12;99042.68;105652;1259;60341;-75
2023/10/16 06:19:56;;;;;;;6.80;3.70;;;;;;;7.76;95.80;99040.13;105844;1254;73789;-75
2023/10/16 06:22:23;;;;;;;6.50;3.90;;;;;;;7.73;95.68;99034.86;105688;1259;68876;-74
2023/10/16 06:24:52;;;;;;;7.10;4.10;;;;;;;7.76;96.29;99026.45;105701;1261;71596;-73
2023/10/16 06:27:19;;;;;;;10.60;4.00;;;;;;;7.79;96.50;99030.11;105696;1259;60458;-74
2023/10/16 06:29:50;;;;;;;7.30;4.10;;;;;;;7.87;96.80;99029.12;105692;1260;60371;-74
2023/10/16 06:32:19;;;;;;;8.80;3.90;;;;;;;7.92;96.72;99034.76;105585;1253;74323;-75
2023/10/16 06:34:51;;;;;;;8.00;3.90;;;;;;;7.97;96.35;99040.50;105734;1254;68633;-75
2023/10/16 06:37:21;;;;;;;7.20;3.50;;;;;;;7.99;95.45;99042.64;105739;1260;72734;-74
2023/10/16 06:39:54;;;;;;;8.20;3.80;;;;;;;7.99;95.04;99038.52;105668;1257;60490;-74
2023/10/16 06:42:22;;;;;;;6.00;4.10;;;;;;;7.96;94.40;99041.46;105679;1257;60529;-74
2023/10/16 06:45:07;;;;;;;5.90;3.80;;;;;;;7.94;94.14;99044.92;106127;1254;73842;-73
2023/10/16 06:47:35;;;;;;;6.30;3.60;;;;;;;7.90;93.50;99052.41;105947;1262;68141;-74
2023/10/16 06:52:54;;;;;;;7.20;3.40;;;;;;;8.00;94.71;99057.14;105779;1268;62149;-72
2023/10/16 06:55:22;;;;;;;5.90;3.20;;;;;;;8.09;95.22;99062.37;106150;1256;60526;-73
2023/10/16 06:57:50;;;;;;;9.40;3.70;;;;;;;8.19;95.59;99063.38;106047;1256;72167;-74
2023/10/16 07:00:31;;;;;;;8.70;4.40;;;;;;;8.28;95.18;99054.52;106025;1261;69358;-73
2023/10/16 07:03:09;;;;;;;7.40;3.50;;;;;;;8.37;95.06;99050.58;105899;1256;72448;-74
2023/10/16 07:05:43;;;;;;;9.30;3.90;;;;;;;8.42;94.16;99051.31;106112;1262;60546;-71
2023/10/16 07:08:22;;;;;;;8.90;4.10;;;;;;;8.46;93.49;99049.98;105902;1254;60368;-72
2023/10/16 07:10:53;;;;;;;6.50;3.50;;;;;;;8.48;93.18;99053.11;106082;1257;73911;-74
2023/10/16 07:13:29;;;;;;;5.90;3.40;;;;;;;8.56;93.94;99049.21;105983;1254;68763;-76
2023/10/16 07:16:16;;;;;;;9.20;3.60;;;;;;;8.60;91.72;99056.05;105993;1258;72735;-75
2023/10/16 07:18:44;;;;;;;9.60;4.20;;;;;;;8.53;91.92;99055.37;105853;1260;60543;-74
2023/10/16 07:21:17;;;;;;;9.30;5.30;;;;;;;8.51;92.17;99059.16;105830;1261;60504;-74
2023/10/16 07:23:45;;;;;;;7.40;3.90;;;;;;;8.50;92.54;99055.06;105920;1256;74611;-73
2023/10/16 07:26:19;;;;;;;6.90;4.60;;;;;;;8.53;92.87;99049.20;105961;1259;68912;-73
2023/10/16 07:28:48;;;;;;;;;;;;;;;8.54;91.21;99051.74;105856;1256;72750;-74
2023/10/16 07:31:16;;;;;;;6.90;4.00;;;;;;;8.50;91.37;99049.33;105956;1259;60387;-76
2023/10/16 07:33:59;;;;;;;6.70;3.90;;;;;;;8.58;92.35;99051.49;105715;1262;60371;-74
2023/10/16 07:36:27;;;;;;;10.00;5.00;;;;;;;8.71;92.51;99052.69;105949;1257;72649;-71
2023/10/16 07:38:55;;;;;;;5.40;3.90;;;;;;;8.79;92.71;99050.63;105705;1257;70274;-75
2023/10/16 07:41:23;;;;;;;7.30;3.50;;;;;;;8.90;92.32;99050.70;105793;1262;74617;-72
2023/10/16 07:43:57;;;;;;;8.40;4.20;;;;;;;8.99;92.50;99061.64;105906;1256;62149;-72
2023/10/16 07:46:31;;;;;;;;;;;;;;;9.11;91.03;99067.08;105945;1261;60449;-73
2023/10/16 07:49:01;;;;;;;9.50;4.30;;;;;;;9.10;89.03;99068.77;105823;1257;73842;-73
2023/10/16 07:51:29;;;;;;;7.50;3.80;;;;;;;9.09;90.96;99070.92;106036;1256;69228;-75
2023/10/16 07:53:57;;;;;;;8.90;4.20;;;;;;;9.17;90.97;99065.84;105810;1260;71461;-74
2023/10/16 07:58:56;;;;;;;6.30;3.60;;;;;;;9.31;89.42;99068.14;105779;1265;60837;-73
2023/10/16 08:01:36;;;;;;;8.50;4.00;;;;;;;9.40;89.81;99072.73;105650;1260;73759;-73
2023/10/16 08:04:19;;;;;;;6.30;3.90;;;;;;;9.50;88.98;99075.62;105414;1260;215978;-74
2023/10/16 08:08:37;;;;;;;11.40;4.10;;;;;;;9.63;89.11;99072.94;102899;1290;599491;-74
2023/10/16 08:11:18;;;;;;;12.70;4.40;;;;;;;9.72;88.38;99074.72;105007;1267;60099;-73
2023/10/16 08:13:49;;;;;;;9.50;4.20;;;;;;;9.82;88.18;99070.84;105699;1254;61186;-74
2023/10/16 08:16:21;;;;;;;7.50;3.80;;;;;;;9.91;86.98;99069.17;105643;1257;72985;-74
2023/10/16 08:18:53;;;;;;;8.80;4.00;;;;;;;9.93;86.01;99070.15;106652;1254;68865;-73
2023/10/16 08:21:26;;;;;;;9.60;3.30;;;;;;;9.95;86.48;99069.17;105871;1251;202273;-74
2023/10/16 08:23:55;;;;;;;12.80;4.50;;;;;;;9.95;86.41;99076.39;107038;1254;60047;-73
2023/10/16 08:26:28;;;;;;;8.90;4.70;;;;;;;9.92;87.21;99078.19;107154;1254;60227;-75
2023/10/16 08:29:12;;;;;;;;;;;;;;;10.00;89.11;99073.48;105874;1251;71384;-73
2023/10/16 08:31:43;;;;;;;5.30;3.40;;;;;;;10.13;88.62;99073.32;105898;1254;71722;-74
2023/10/16 08:34:11;;;;;;;8.10;3.90;;;;;;;10.26;88.57;99072.08;105918;1257;70824;-74
2023/10/16 08:36:39;;;;;;;7.70;3.10;;;;;;;10.42;88.84;99072.00;105484;1255;60345;-74
2023/10/16 08:39:09;;;;;;;8.00;4.00;;;;;;;10.68;90.35;99064.95;105989;1260;60099;-74
2023/10/16 08:41:45;;;;;;;11.90;4.10;;;;;;;11.04;89.43;99060.30;105854;1254;71845;-74
2023/10/16 08:44:17;;;;;;;6.30;3.10;;;;;;;11.36;88.64;99061.04;105902;1251;72563;-74
2023/10/16 08:46:53;;;;;;;5.80;3.50;;;;;;;11.52;82.40;99061.94;106018;1254;71258;-71
2023/10/16 08:49:22;;;;;;;7.70;2.90;;;;;;;11.40;76.21;99058.14;105888;1259;59723;-74
2023/10/16 08:51:53;;;;;;;10.20;4.20;;;;;;;11.21;78.68;99058.89;106039;1257;62281;-75
2023/10/16 08:57:08;;;;;;;8.40;3.60;;;;;;;11.39;84.26;99060.38;105892;1252;68269;-73
2023/10/16 08:59:39;;;;;;;9.10;3.40;;;;;;;11.70;82.96;99060.28;105934;1251;71433;-73
2023/10/16 09:02:07;;;;;;;10.50;3.20;;;;;;;12.04;79.70;99053.20;105683;1259;60643;-75
2023/10/16 09:04:35;;;;;;;8.00;3.80;;;;;;;12.44;82.53;99051.35;105954;1251;60299;-73
2023/10/16 09:07:03;;;;;;;8.60;3.20;;;;;;;13.00;84.36;99050.52;105888;1251;71873;-75
2023/10/16 09:09:32;;;;;;;10.50;3.70;;;;;;;13.71;82.76;99052.05;105954;1257;69363;-73
2023/10/16 09:12:10;;;;;;;6.00;3.60;;;;;;;14.43;77.23;99040.11;105618;1253;72966;-73
2023/10/16 09:14:40;;;;;;;8.10;3.70;;;;;;;14.91;75.84;99036.63;106059;1254;62445;-74
2023/10/16 09:17:08;;;;;;;7.40;3.80;;;;;;;15.28;75.48;99035.46;105955;1251;59736;-73
2023/10/16 09:19:45;;;;;;;8.50;4.50;;;;;;;15.61;69.19;99037.49;105820;1254;72109;-72
2023/10/16 09:22:31;;;;;;;6.50;3.50;;;;;;;15.85;69.63;99033.30;106092;1254;71123;-71
2023/10/16 09:24:59;;;;;;;10.20;4.70;;;;;;;15.86;71.43;99033.23;105941;1254;71434;-73
2023/10/16 09:27:30;;;;;;;8.70;4.20;;;;;;;15.67;67.60;99031.90;105881;1254;60135;-73
2023/10/16 09:30:00;;;;;;;10.50;4.30;;;;;;;15.54;67.90;99029.89;105897;1254;59615;-73
2023/10/16 09:32:39;;;;;;;10.30;4.60;;;;;;;15.52;68.91;99031.59;105770;1261;72814;-72
2023/10/16 09:35:12;;;;;;;8.40;3.60;;;;;;;15.48;69.19;99029.00;105923;1253;69182;-74
2023/10/16 09:37:40;;;;;;;6.30;3.40;;;;;;;15.43;68.17;99027.96;105840;1254;75145;-74
2023/10/16 09:40:35;;;;;;;5.60;2.50;;;;;;;15.39;61.57;99029.77;105725;1255;60104;-74
2023/10/16 09:43:24;;;;;;;6.90;3.30;;;;;;;15.14;57.53;99032.63;105867;1253;59611;-73
2023/10/16 09:48:39;;;;;;;6.10;3.10;;;;;;;15.06;60.72;99034.12;105789;1254;69481;-72
2023/10/16 09:51:09;;;;;;;9.30;3.50;;;;;;;15.23;62.16;99036.02;105953;1254;73664;-74
2023/10/16 09:53:36;;;;;;;6.50;2.70;;;;;;;15.46;59.66;99038.39;105847;1255;59624;-73
2023/10/16 09:56:04;;;;;;;4.30;2.60;;;;;;;15.45;57.47;99032.06;105870;1254;59695;-73
2023/10/16 09:58:34;;;;;;;5.50;3.10;;;;;;;15.30;60.99;99035.38;105906;1258;73423;-72
2023/10/16 10:01:10;;;;;;;5.10;2.80;;;;;;;15.25;58.04;99035.83;105925;1254;70299;-76
2023/10/16 10:03:38;;;;;;;6.70;3.20;;;;;;;15.15;57.76;99037.98;106055;1253;71781;-77
2023/10/16 10:06:09;;;;;;;9.40;3.40;;;;;;;14.81;57.11;99036.80;106320;1257;59697;-76
2023/10/16 10:11:39;;;;;;;6.40;3.20;;;;;;;14.01;61.58;99050.07;106028;1254;71064;-77
2023/10/16 10:16:58;;;;;;;7.60;3.80;;;;;;;13.24;55.97;99053.58;106013;1258;73312;-76
2023/10/16 10:19:35;;;;;;;8.00;3.00;;;;;;;12.65;58.14;99060.10;105785;1254;59650;-74
2023/10/16 10:22:06;;;;;;;9.10;3.40;;;;;;;12.61;60.17;99054.77;105970;1252;59834;-73
2023/10/16 10:24:35;;;;;;;5.40;3.10;;;;;;;12.97;59.64;99046.57;105912;1252;72962;-75
2023/10/16 10:27:04;;;;;;;5.80;3.10;;;;;;;13.61;61.84;99046.59;105999;1254;72267;-75
2023/10/16 10:29:32;;;;;;;4.70;2.70;;;;;;;14.34;60.61;99041.54;105934;1254;73533;-73
2023/10/16 10:32:06;;;;;;;4.50;3.00;;;;;;;14.88;53.05;99042.04;105880;1254;59720;-73
2023/10/16 10:34:34;;;;;;;5.70;2.60;;;;;;;15.05;51.46;99040.23;105792;1254;60170;-73
2023/10/16 10:37:07;;;;;;;5.20;2.40;;;;;;;14.83;51.08;99033.74;105985;1252;73097;-74
2023/10/16 10:39:43;;;;;;;7.20;2.70;;;;;;;14.37;50.30;99040.42;106035;1254;70614;-75
2023/10/16 10:42:23;;;;;;;4.20;2.50;;;;;;;14.06;53.61;99042.42;106014;1254;71118;-74
2023/10/16 10:45:17;;;;;;;6.60;3.20;;;;;;;14.12;54.38;99046.27;106080;1254;59634;-75
2023/10/16 10:47:44;;;;;;;5.50;3.00;;;;;;;14.15;54.25;99047.01;105922;1260;59534;-72
2023/10/16 10:50:15;;;;;;;6.90;2.70;;;;;;;14.00;52.51;99055.73;108913;1254;74425;-74
2023/10/16 10:52:46;;;;;;;6.10;3.20;;;;;;;13.70;53.91;99056.66;109295;1253;71002;-76
2023/10/16 10:55:25;;;;;;;5.30;2.60;;;;;;;13.51;53.35;99059.06;109325;1253;71402;-75
2023/10/16 10:57:58;;;;;;;3.00;2.20;;;;;;;13.34;52.33;99055.58;108852;1258;59720;-74
2023/10/16 11:05:31;;;;;;;5.70;2.80;;;;;;;12.32;54.21;99066.54;109191;1252;69120;-75
2023/10/16 11:10:44;;;;;;;5.80;3.30;;;;;;;11.97;56.26;99064.77;109420;1254;58775;-75
2023/10/16 11:13:15;;;;;;;5.80;2.70;;;;;;;11.93;57.11;99069.96;109393;1253;58709;-77
2023/10/16 11:15:53;;;;;;;6.40;3.00;;;;;;;11.84;56.65;99074.33;109272;1253;72038;-75
2023/10/16 11:18:22;;;;;;;7.90;2.60;;;;;;;11.63;57.70;99072.27;109357;1254;68734;-75
2023/10/16 11:20:53;;;;;;;7.50;2.30;;;;;;;11.49;58.07;99074.30;108847;1253;71203;-72
2023/10/16 11:23:31;;;;;;;6.00;2.80;;;;;;;11.35;57.54;99074.41;108720;1253;59570;-73
2023/10/16 11:25:59;;;;;;;5.10;2.50;;;;;;;11.08;57.60;99075.02;108885;1253;61349;-71
2023/10/16 11:28:31;;;;;;;6.20;2.10;;;;;;;10.81;58.55;99074.17;108793;1254;71736;-72
2023/10/16 11:31:01;;;;;;;4.30;2.30;;;;;;;10.64;59.38;99074.63;109016;1253;70373;-74
2023/10/16 11:33:44;;;;;;;9.10;2.50;;;;;;;10.53;59.80;99076.33;109160;1254;71657;-75
2023/10/16 11:36:23;;;;;;;6.40;2.40;;;;;;;10.41;59.50;99078.58;109107;1255;59319;-74
2023/10/16 11:38:53;;;;;;;4.70;2.60;;;;;;;10.42;60.72;99077.13;109075;1254;59704;-74
2023/10/16 11:41:21;;;;;;;4.30;2.30;;;;;;;10.49;61.18;99084.02;109063;1254;71792;-74
2023/10/16 11:43:54;;;;;;;4.30;1.80;;;;;;;10.45;59.88;99088.50;108666;1253;71530;-73
2023/10/16 11:46:33;;;;;;;3.40;2.20;;;;;;;10.30;60.59;99092.54;108876;1254;71413;-74
2023/10/16 11:51:39;;;;;;;3.90;1.70;;;;;;;10.02;59.91;99099.81;107128;1255;60477;-74
2023/10/16 11:54:10;;;;;;;3.50;1.80;;;;;;;10.01;60.92;99101.28;106452;1254;73961;-74
2023/10/16 11:56:38;;;;;;;3.50;1.70;;;;;;;10.10;61.34;99101.78;106102;1259;68864;-74
2023/10/16 11:59:09;;;;;;;4.60;1.90;;;;;;;10.08;61.30;99099.33;105890;1259;72780;-74
2023/10/16 12:01:36;;;;;;;3.90;1.70;;;;;;;10.06;61.77;99102.80;105950;1259;59790;-75
2023/10/16 12:04:26;;;;;;;7.80;2.00;;;;;;;10.12;62.34;99102.29;105919;1251;60003;-74
2023/10/16 12:06:54;;;;;;;2.90;1.80;;;;;;;10.20;61.92;99098.65;105922;1253;71649;-73
2023/10/16 12:09:22;;;;;;;5.50;2.30;;;;;;;10.22;62.19;99102.32;105987;1258;69869;-74
2023/10/16 12:11:50;;;;;;;4.70;2.40;;;;;;;10.18;63.09;99102.00;105914;1256;70583;-76
2023/10/16 12:14:18;;;;;;;5.50;2.00;;;;;;;10.19;62.08;99110.25;105680;1260;59720;-74
2023/10/16 12:16:47;;;;;;;2.70;1.90;;;;;;;10.12;62.05;99113.53;105830;1258;59870;-74
2023/10/16 12:19:15;;;;;;;4.40;2.30;;;;;;;9.99;62.28;99119.65;105911;1254;73040;-74
2023/10/16 12:21:43;;;;;;;3.60;2.00;;;;;;;9.87;62.81;99122.84;105940;1259;68960;-76
2023/10/16 12:24:11;;;;;;;3.50;1.80;;;;;;;9.83;63.02;99123.27;105935;1258;71548;-75
2023/10/16 12:26:42;;;;;;;4.90;2.40;;;;;;;9.74;63.48;99122.21;105999;1259;60667;-75
2023/10/16 12:29:11;;;;;;;4.10;2.60;;;;;;;9.64;63.91;99127.16;105908;1260;61384;-74
2023/10/16 12:31:41;;;;;;;4.90;2.30;;;;;;;9.67;64.15;99127.04;106055;1254;74044;-74
2023/10/16 12:34:12;;;;;;;7.60;2.70;;;;;;;9.62;63.77;99130.09;106060;1254;69922;-74
2023/10/16 12:36:43;;;;;;;4.50;2.50;;;;;;;9.49;64.20;99130.41;105899;1259;71393;-74
2023/10/16 12:39:16;;;;;;;3.10;2.00;;;;;;;9.46;64.87;99133.71;105884;1257;60396;-73
2023/10/16 12:41:44;;;;;;;4.80;2.30;;;;;;;9.53;65.04;99137.36;105933;1254;62344;-72
2023/10/16 12:44:12;;;;;;;4.40;2.20;;;;;;;9.50;64.93;99150.94;105967;1254;74412;-76
2023/10/16 12:46:43;;;;;;;4.40;1.90;;;;;;;9.35;65.16;99155.52;105992;1257;71426;-75
2023/10/16 12:49:11;;;;;;;4.50;2.00;;;;;;;9.08;65.86;99161.86;105846;1257;72581;-75
2023/10/16 12:51:38;;;;;;;4.70;2.20;;;;;;;8.83;67.18;99161.36;106228;1254;60446;-75
2023/10/16 12:54:06;;;;;;;7.20;1.90;;;;;;;8.62;67.80;99161.55;106479;1251;60511;-73
2023/10/16 12:56:35;;;;;;;4.50;2.00;;;;;;;8.53;68.41;99165.91;106374;1251;76101;-74
2023/10/16 12:59:03;;;;;;;5.70;2.00;;;;;;;8.49;69.14;99167.86;106258;1256;69168;-73
2023/10/16 13:01:30;;;;;;;5.00;2.50;;;;;;;8.38;69.68;99177.52;106066;1256;74710;-73
2023/10/16 13:04:01;;;;;;;5.10;2.70;;;;;;;8.25;69.96;99177.89;105913;1254;62546;-73
2023/10/16 13:06:29;;;;;;;6.80;3.10;;;;;;;8.27;70.46;99180.15;105976;1253;61619;-73
2023/10/16 13:08:57;;;;;;;6.00;2.80;;;;;;;8.34;70.81;99186.29;106062;1255;72725;-74
2023/10/16 13:11:24;;;;;;;5.00;2.50;;;;;;;8.32;71.15;99184.90;105884;1254;70791;-74
2023/10/16 13:13:55;;;;;;;5.10;2.40;;;;;;;8.24;71.32;99180.27;105962;1256;72734;-74
2023/10/16 13:16:27;;;;;;;3.30;2.40;;;;;;;8.13;71.68;99185.54;105984;1251;62240;-75
2023/10/16 13:18:57;;;;;;;4.10;2.40;;;;;;;8.08;71.57;99186.90;105798;1258;62481;-73
2023/10/16 13:21:34;;;;;;;4.50;2.20;;;;;;;8.06;71.86;99190.27;105954;1256;74119;-76
2023/10/16 13:24:04;;;;;;;4.70;2.30;;;;;;;7.99;72.07;99191.09;105981;1251;70869;-74
2023/10/16 13:26:36;;;;;;;6.10;2.50;;;;;;;7.93;72.69;99190.80;105931;1251;72371;-75
2023/10/16 13:29:13;;;;;;;6.90;2.50;;;;;;;8.00;72.54;99193.62;105952;1256;60612;-73
2023/10/16 13:31:41;;;;;;;9.60;3.00;;;;;;;8.09;72.77;99195.66;105978;1256;60970;-75
2023/10/16 13:34:13;;;;;;;5.10;2.40;;;;;;;8.06;72.80;99199.14;106037;1251;75937;-74
2023/10/16 13:36:56;;;;;;;4.50;2.70;;;;;;;8.00;72.96;99203.11;105834;1251;70081;-74
2023/10/16 13:39:31;;;;;;;4.60;2.40;;;;;;;8.00;72.77;99204.71;105905;1257;74848;-74
2023/10/16 13:41:58;;;;;;;7.50;3.40;;;;;;;8.04;72.29;99207.10;105959;1254;60485;-74
2023/10/16 13:44:26;;;;;;;4.70;2.40;;;;;;;8.01;72.10;99208.83;105977;1251;60351;-75
2023/10/16 13:46:54;;;;;;;4.10;2.80;;;;;;;7.96;72.19;99212.00;105870;1256;74468;-75
2023/10/16 13:49:24;;;;;;;4.60;2.50;;;;;;;7.98;72.24;99206.02;105878;1251;68970;-75
2023/10/16 13:51:52;;;;;;;4.40;2.70;;;;;;;8.07;71.84;99214.39;106058;1254;73175;-75
2023/10/16 13:54:20;;;;;;;3.50;2.60;;;;;;;8.06;71.17;99216.23;106129;1256;60526;-74
2023/10/16 13:56:48;;;;;;;4.20;2.80;;;;;;;7.99;71.60;99228.47;106092;1253;60532;-75
2023/10/16 13:59:18;;;;;;;6.90;2.20;;;;;;;7.97;71.62;99233.65;105768;1254;74230;-73
2023/10/16 14:01:46;;;;;;;4.00;2.50;;;;;;;8.02;71.56;99236.08;105927;1254;72705;-75